createdAt,value
2022-09-26T00:00:20.260Z,11.10
2022-09-26T00:02:47.092Z,11.15
2022-09-26T00:05:14.000Z,11.22
2022-09-26T00:07:40.656Z,11.18
2022-09-26T00:10:08.427Z,11.20
2022-09-26T00:12:35.138Z,11.30
2022-09-26T00:15:01.768Z,11.27
2022-09-26T00:17:30.465Z,11.31
2022-09-26T00:19:57.221Z,11.31
2022-09-26T00:22:23.931Z,11.36
2022-09-26T00:24:50.656Z,11.36
2022-09-26T00:27:17.351Z,11.36
2022-09-26T00:29:44.143Z,11.41
2022-09-26T00:32:10.995Z,11.40
2022-09-26T00:34:40.176Z,11.41
2022-09-26T00:37:06.978Z,11.41
2022-09-26T00:39:33.930Z,11.43
2022-09-26T00:42:00.663Z,11.45
2022-09-26T00:44:43.926Z,11.45
2022-09-26T00:47:40.904Z,11.48
2022-09-26T00:50:15.629Z,11.53
2022-09-26T00:52:47.618Z,11.56
2022-09-26T00:55:18.804Z,11.56
2022-09-26T00:57:49.773Z,11.64
2022-09-26T01:00:16.521Z,11.60
2022-09-26T01:02:45.232Z,11.74
2022-09-26T01:05:16.579Z,11.74
2022-09-26T01:07:43.983Z,11.78
2022-09-26T01:10:10.918Z,11.79
2022-09-26T01:12:38.509Z,11.81
2022-09-26T01:15:07.328Z,11.80
2022-09-26T01:17:33.956Z,11.86
2022-09-26T01:20:13.136Z,11.83
2022-09-26T01:23:43.072Z,11.86
2022-09-26T01:26:29.278Z,11.88
2022-09-26T01:29:25.170Z,11.84
2022-09-26T01:32:03.223Z,11.86
2022-09-26T01:34:35.883Z,11.86
2022-09-26T01:37:09.567Z,11.84
2022-09-26T01:39:47.102Z,11.92
2022-09-26T01:42:26.795Z,11.88
2022-09-26T01:45:00.617Z,11.87
2022-09-26T01:47:33.861Z,11.87
2022-09-26T01:50:06.829Z,11.93
2022-09-26T01:52:38.163Z,11.94
2022-09-26T01:55:10.285Z,11.91
2022-09-26T01:57:44.040Z,11.92
2022-09-26T02:00:11.698Z,11.90
2022-09-26T02:02:48.956Z,11.91
2022-09-26T02:05:29.664Z,11.86
2022-09-26T02:08:00.695Z,11.89
2022-09-26T02:10:32.750Z,11.89
2022-09-26T02:13:04.711Z,11.93
2022-09-26T02:15:36.443Z,11.98
2022-09-26T02:18:07.432Z,12.00
2022-09-26T02:20:40.750Z,11.94
2022-09-26T02:23:08.972Z,11.97
2022-09-26T02:25:36.071Z,11.93
2022-09-26T02:28:04.664Z,11.92
2022-09-26T02:30:33.567Z,11.81
2022-09-26T02:33:01.126Z,11.74
2022-09-26T02:35:31.085Z,11.70
2022-09-26T02:37:58.386Z,11.63
2022-09-26T02:40:32.286Z,11.58
2022-09-26T02:43:12.772Z,11.55
2022-09-26T02:45:45.510Z,11.46
2022-09-26T02:48:26.023Z,11.44
2022-09-26T02:51:07.587Z,11.41
2022-09-26T02:53:53.391Z,11.44
2022-09-26T02:56:33.129Z,11.40
2022-09-26T02:59:09.072Z,11.34
2022-09-26T03:01:48.312Z,11.37
2022-09-26T03:04:23.849Z,11.39
2022-09-26T03:06:58.138Z,11.40
2022-09-26T03:09:27.856Z,11.34
2022-09-26T03:11:55.278Z,11.40
2022-09-26T03:14:22.227Z,11.39
2022-09-26T03:16:51.247Z,11.38
2022-09-26T03:19:26.110Z,11.41
2022-09-26T03:21:54.470Z,11.42
2022-09-26T03:24:22.851Z,11.48
2022-09-26T03:26:50.382Z,11.43
2022-09-26T03:29:17.442Z,11.46
2022-09-26T03:31:44.267Z,11.48
2022-09-26T03:34:11.096Z,11.53
2022-09-26T03:36:41.213Z,11.54
2022-09-26T03:39:11.743Z,11.56
2022-09-26T03:41:49.788Z,11.54
2022-09-26T03:44:22.928Z,11.54
2022-09-26T03:47:08.519Z,11.53
2022-09-26T03:49:40.282Z,11.63
2022-09-26T03:52:10.335Z,11.60
2022-09-26T03:54:38.812Z,11.59
2022-09-26T03:57:05.650Z,11.59
2022-09-26T03:59:36.061Z,11.62
2022-09-26T04:02:03.188Z,11.57
2022-09-26T04:04:31.374Z,11.56
2022-09-26T04:06:58.823Z,11.60
2022-09-26T04:09:26.480Z,11.58
2022-09-26T04:11:55.608Z,11.59
2022-09-26T04:14:22.666Z,11.61
2022-09-26T04:16:55.251Z,11.60
2022-09-26T04:19:33.058Z,11.58
2022-09-26T04:22:00.034Z,11.57
2022-09-26T04:24:30.729Z,11.61
2022-09-26T04:26:58.736Z,11.59
2022-09-26T04:29:25.765Z,11.55
2022-09-26T04:32:02.363Z,11.61
2022-09-26T04:34:38.023Z,11.61
2022-09-26T04:37:06.362Z,11.62
2022-09-26T04:39:33.058Z,11.56
2022-09-26T04:42:01.992Z,11.60
2022-09-26T04:44:28.759Z,11.57
2022-09-26T04:46:55.377Z,11.58
2022-09-26T04:49:31.307Z,11.56
2022-09-26T04:51:58.044Z,11.59
2022-09-26T04:54:24.692Z,11.60
2022-09-26T04:56:51.515Z,11.61
2022-09-26T04:59:19.723Z,11.64
2022-09-26T05:02:00.131Z,11.60
2022-09-26T05:04:35.755Z,11.62
2022-09-26T05:07:02.792Z,11.64
2022-09-26T05:09:35.919Z,11.63
2022-09-26T05:12:16.085Z,11.62
2022-09-26T05:14:47.173Z,11.61
2022-09-26T05:17:13.860Z,11.58
2022-09-26T05:19:40.666Z,11.60
2022-09-26T05:22:19.594Z,11.60
2022-09-26T05:24:46.502Z,11.56
2022-09-26T05:27:14.214Z,11.53
2022-09-26T05:29:42.358Z,11.50
2022-09-26T05:32:10.696Z,11.53
2022-09-26T05:34:38.760Z,11.46
2022-09-26T05:37:06.917Z,11.42
2022-09-26T05:39:35.859Z,11.45
2022-09-26T05:42:09.480Z,11.37
2022-09-26T05:44:40.422Z,11.37
2022-09-26T05:47:08.873Z,11.40
2022-09-26T05:49:37.961Z,11.43
2022-09-26T05:52:04.802Z,11.44
2022-09-26T05:54:31.722Z,11.48
2022-09-26T05:56:59.488Z,11.50
2022-09-26T05:59:36.885Z,11.56
2022-09-26T06:02:22.500Z,11.57
2022-09-26T06:05:04.650Z,11.61
2022-09-26T06:07:51.783Z,11.60
2022-09-26T06:10:34.057Z,11.61
2022-09-26T06:13:01.365Z,11.61
2022-09-26T06:15:28.876Z,11.62
2022-09-26T06:18:00.408Z,11.64
2022-09-26T06:20:28.702Z,11.64
2022-09-26T06:22:55.524Z,11.69
2022-09-26T06:25:22.402Z,11.67
2022-09-26T06:27:49.601Z,11.64
2022-09-26T06:30:16.464Z,11.71
2022-09-26T06:32:43.409Z,11.70
2022-09-26T06:35:34.845Z,11.71
2022-09-26T06:38:17.262Z,11.79
2022-09-26T06:40:44.085Z,11.78
2022-09-26T06:43:10.654Z,11.81
2022-09-26T06:45:56.215Z,11.78
2022-09-26T06:48:26.799Z,11.82
2022-09-26T06:50:59.575Z,11.83
2022-09-26T06:53:28.361Z,11.93
2022-09-26T06:55:58.465Z,11.89
2022-09-26T06:58:25.114Z,11.90
2022-09-26T07:00:59.360Z,11.88
2022-09-26T07:03:45.390Z,11.93
2022-09-26T07:06:32.623Z,11.93
2022-09-26T07:09:03.867Z,11.90
2022-09-26T07:14:40.073Z,11.90
2022-09-26T07:17:36.407Z,11.90
2022-09-26T07:20:20.163Z,11.92
2022-09-26T07:23:12.148Z,11.96
2022-09-26T07:25:44.832Z,11.98
2022-09-26T07:28:11.485Z,11.99
2022-09-26T07:30:44.292Z,11.89
2022-09-26T07:33:34.234Z,11.78
2022-09-26T07:36:06.197Z,11.88
2022-09-26T07:38:34.472Z,12.00
2022-09-26T07:41:02.959Z,12.09
2022-09-26T07:44:16.929Z,12.13
2022-09-26T07:46:19.517Z,12.19
2022-09-26T07:48:49.767Z,12.27
2022-09-26T07:51:36.705Z,12.31
2022-09-26T07:54:07.058Z,12.33
2022-09-26T07:56:36.617Z,12.38
2022-09-26T07:59:21.982Z,12.41
2022-09-26T08:01:58.076Z,12.47
2022-09-26T08:04:45.011Z,12.55
2022-09-26T08:07:11.647Z,12.54
2022-09-26T08:09:45.093Z,12.67
2022-09-26T08:12:35.576Z,12.70
2022-09-26T08:15:10.282Z,12.68
2022-09-26T08:17:59.930Z,12.63
2022-09-26T08:20:31.942Z,12.57
2022-09-26T08:22:59.486Z,12.48
2022-09-26T08:25:27.971Z,12.42
2022-09-26T08:28:01.996Z,12.41
2022-09-26T08:30:28.718Z,12.30
2022-09-26T08:32:55.701Z,12.27
2022-09-26T08:35:22.415Z,12.27
2022-09-26T08:38:09.042Z,12.27
2022-09-26T08:40:50.075Z,12.32
2022-09-26T08:43:46.788Z,12.33
2022-09-26T08:46:25.561Z,12.37
2022-09-26T08:49:42.029Z,12.44
2022-09-26T08:52:26.007Z,12.60
2022-09-26T08:54:55.246Z,12.78
2022-09-26T08:57:32.176Z,12.95
2022-09-26T08:59:58.925Z,13.06
2022-09-26T09:02:31.570Z,13.08
2022-09-26T09:05:06.014Z,13.07
2022-09-26T09:07:38.031Z,13.10
2022-09-26T09:10:08.116Z,13.13
2022-09-26T09:12:57.234Z,13.26
2022-09-26T09:16:12.268Z,13.29
2022-09-26T09:19:20.743Z,13.32
2022-09-26T09:22:35.474Z,13.46
2022-09-26T09:25:15.306Z,13.48
2022-09-26T09:28:03.939Z,13.54
2022-09-26T09:30:40.748Z,13.67
2022-09-26T09:33:18.199Z,13.77
2022-09-26T09:35:57.266Z,13.80
2022-09-26T09:38:48.067Z,13.87
2022-09-26T09:41:35.949Z,13.86
2022-09-26T09:44:10.171Z,13.82
2022-09-26T09:46:41.008Z,13.74
2022-09-26T09:49:18.915Z,13.77
2022-09-26T09:51:56.837Z,13.77
2022-09-26T09:54:34.681Z,13.80
2022-09-26T09:57:22.988Z,13.86
2022-09-26T10:00:03.878Z,13.93
2022-09-26T10:02:49.586Z,14.04
2022-09-26T10:08:40.043Z,14.40
2022-09-26T10:11:18.069Z,14.52
2022-09-26T10:14:00.579Z,14.64
2022-09-26T10:17:18.126Z,14.76
2022-09-26T10:20:03.674Z,14.69
2022-09-26T10:22:36.403Z,14.72
2022-09-26T10:25:15.972Z,14.74
2022-09-26T10:27:49.239Z,14.71
2022-09-26T10:30:24.577Z,14.74
2022-09-26T10:32:56.816Z,14.73
2022-09-26T10:35:49.692Z,14.64
2022-09-26T10:38:23.189Z,14.72
2022-09-26T10:41:23.695Z,14.70
2022-09-26T10:43:54.739Z,14.73
2022-09-26T10:46:59.349Z,14.87
2022-09-26T10:49:35.697Z,14.87
2022-09-26T10:52:26.549Z,14.87
2022-09-26T10:54:57.852Z,14.77
2022-09-26T10:57:29.508Z,14.80
2022-09-26T11:00:00.305Z,14.82
2022-09-26T11:02:28.505Z,14.87
2022-09-26T11:05:00.767Z,14.84
2022-09-26T11:07:39.140Z,14.74
2022-09-26T11:10:31.934Z,14.50
2022-09-26T11:13:16.801Z,14.35
2022-09-26T11:15:52.984Z,14.19
2022-09-26T11:18:26.170Z,14.03
2022-09-26T11:21:00.971Z,14.05
2022-09-26T11:23:37.185Z,14.26
2022-09-26T11:26:15.432Z,14.35
2022-09-26T11:28:47.150Z,14.28
2022-09-26T11:31:37.150Z,14.30
2022-09-26T11:34:28.401Z,14.33
2022-09-26T11:37:20.267Z,14.44
2022-09-26T11:40:09.930Z,14.50
2022-09-26T11:42:46.495Z,14.42
2022-09-26T11:45:23.690Z,14.38
2022-09-26T11:48:37.919Z,14.32
2022-09-26T11:51:43.158Z,14.28
2022-09-26T11:54:28.504Z,14.29
2022-09-26T11:57:08.318Z,14.26
2022-09-26T11:59:57.279Z,14.20
2022-09-26T12:02:45.645Z,14.13
2022-09-26T12:05:27.061Z,14.01
2022-09-26T12:08:07.897Z,13.99
2022-09-26T12:10:48.456Z,13.93
2022-09-26T12:13:25.698Z,13.89
2022-09-26T12:16:02.580Z,13.92
2022-09-26T12:18:40.752Z,13.91
2022-09-26T12:21:21.723Z,13.87
2022-09-26T12:23:53.225Z,13.82
2022-09-26T12:26:31.147Z,13.79
2022-09-26T12:29:10.372Z,13.74
2022-09-26T12:32:06.894Z,13.64
2022-09-26T12:34:45.035Z,13.41
2022-09-26T12:37:32.528Z,13.40
2022-09-26T12:40:34.836Z,13.43
2022-09-26T12:43:27.799Z,13.43
2022-09-26T12:46:26.749Z,13.39
2022-09-26T12:49:13.719Z,13.43
2022-09-26T12:51:44.685Z,13.42
2022-09-26T12:54:43.611Z,13.53
2022-09-26T12:57:25.529Z,13.51
2022-09-26T13:00:13.861Z,13.54
2022-09-26T13:03:01.011Z,13.56
2022-09-26T13:05:58.625Z,13.51
2022-09-26T13:08:34.468Z,13.51
2022-09-26T13:11:14.106Z,13.49
2022-09-26T13:14:23.860Z,13.54
2022-09-26T13:17:03.831Z,13.54
2022-09-26T13:19:37.361Z,13.57
2022-09-26T13:22:11.209Z,13.66
2022-09-26T13:24:49.511Z,13.58
2022-09-26T13:27:19.950Z,13.53
2022-09-26T13:29:58.603Z,13.52
2022-09-26T13:32:31.656Z,13.50
2022-09-26T13:35:02.793Z,13.38
2022-09-26T13:37:46.025Z,13.32
2022-09-26T13:40:33.202Z,13.32
2022-09-26T13:43:13.347Z,13.26
2022-09-26T13:45:53.204Z,13.24
2022-09-26T13:48:30.997Z,13.13
2022-09-26T13:51:08.038Z,13.10
2022-09-26T13:53:43.074Z,13.04
2022-09-26T13:56:44.197Z,13.08
2022-09-26T13:59:50.049Z,13.07
2022-09-26T14:02:27.402Z,13.08
2022-09-26T14:05:27.366Z,13.14
2022-09-26T14:07:55.088Z,13.12
2022-09-26T14:10:37.111Z,13.21
2022-09-26T14:13:18.660Z,13.33
2022-09-26T14:16:00.741Z,13.30
2022-09-26T14:18:38.684Z,13.24
2022-09-26T14:21:27.859Z,13.28
2022-09-26T14:24:22.669Z,13.22
2022-09-26T14:26:56.954Z,13.23
2022-09-26T14:29:34.077Z,13.18
2022-09-26T14:32:03.725Z,13.20
2022-09-26T14:34:41.718Z,13.23
2022-09-26T14:37:39.906Z,13.19
2022-09-26T14:40:27.040Z,13.17
2022-09-26T14:42:57.570Z,13.16
2022-09-26T14:45:41.998Z,13.16
2022-09-26T14:48:26.397Z,13.06
2022-09-26T14:51:06.899Z,13.01
2022-09-26T14:53:41.839Z,12.98
2022-09-26T14:56:13.813Z,13.02
2022-09-26T14:58:50.330Z,12.98
2022-09-26T15:01:21.883Z,12.98
2022-09-26T15:03:56.417Z,12.98
2022-09-26T15:06:25.248Z,12.98
2022-09-26T15:08:54.676Z,12.99
2022-09-26T15:11:31.570Z,12.98
2022-09-26T15:14:04.637Z,12.96
2022-09-26T15:16:36.151Z,12.94
2022-09-26T15:33:59.824Z,12.89
2022-09-26T15:36:31.575Z,12.75
2022-09-26T15:38:58.774Z,12.75
2022-09-26T15:41:26.996Z,12.72
2022-09-26T15:44:00.779Z,12.69
2022-09-26T15:46:27.775Z,12.66
2022-09-26T15:48:54.390Z,12.64
2022-09-26T15:51:25.620Z,12.60
2022-09-26T15:53:56.399Z,12.67
2022-09-26T15:56:29.213Z,12.68
2022-09-26T15:59:00.666Z,12.70
2022-09-26T16:01:31.311Z,12.64
2022-09-26T16:04:01.539Z,12.58
2022-09-26T16:06:31.490Z,12.52
2022-09-26T16:09:04.979Z,12.52
2022-09-26T16:11:41.469Z,12.51
2022-09-26T16:14:22.495Z,12.47
2022-09-26T16:16:49.508Z,12.49
2022-09-26T16:19:28.976Z,12.46
2022-09-26T16:21:56.190Z,12.42
2022-09-26T16:24:31.265Z,12.43
2022-09-26T16:26:59.638Z,12.37
2022-09-26T16:29:32.507Z,12.39
2022-09-26T16:31:59.553Z,12.39
2022-09-26T16:34:26.270Z,12.33
2022-09-26T16:36:54.791Z,12.33
2022-09-26T16:39:24.076Z,12.28
2022-09-26T16:42:03.956Z,12.33
2022-09-26T16:44:36.570Z,12.34
2022-09-26T16:47:06.062Z,12.32
2022-09-26T16:49:43.306Z,12.27
2022-09-26T16:52:29.378Z,12.28
2022-09-26T16:54:57.523Z,12.25
2022-09-26T16:57:27.217Z,12.20
2022-09-26T16:59:58.754Z,12.23
2022-09-26T17:02:25.450Z,12.25
2022-09-26T17:04:53.679Z,12.29
2022-09-26T17:07:20.933Z,12.28
2022-09-26T17:09:48.239Z,12.29
2022-09-26T17:12:18.233Z,12.29
2022-09-26T17:14:48.473Z,12.27
2022-09-26T17:17:19.843Z,12.27
2022-09-26T17:19:49.909Z,12.26
2022-09-26T17:22:18.269Z,12.30
2022-09-26T17:24:45.470Z,12.30
2022-09-26T17:27:15.055Z,12.30
2022-09-26T17:29:44.371Z,12.31
2022-09-26T17:32:13.805Z,12.26
2022-09-26T17:34:42.002Z,12.24
2022-09-26T17:37:11.844Z,12.21
2022-09-26T17:39:38.703Z,12.23
2022-09-26T17:42:05.325Z,12.23
2022-09-26T17:44:31.922Z,12.18
2022-09-26T17:46:58.808Z,12.17
2022-09-26T17:49:27.802Z,12.15
2022-09-26T17:51:56.318Z,12.17
2022-09-26T17:54:28.695Z,12.21
2022-09-26T17:56:58.424Z,12.24
2022-09-26T17:59:26.038Z,12.21
2022-09-26T18:01:56.733Z,12.23
2022-09-26T18:04:24.971Z,12.24
2022-09-26T18:06:51.640Z,12.24
2022-09-26T18:09:20.484Z,12.24
2022-09-26T18:11:54.183Z,12.27
2022-09-26T18:14:21.038Z,12.26
2022-09-26T18:16:47.642Z,12.20
2022-09-26T18:19:14.610Z,12.18
2022-09-26T18:21:41.340Z,12.15
2022-09-26T18:24:18.648Z,12.16
2022-09-26T18:26:48.662Z,12.20
2022-09-26T18:29:20.691Z,12.12
2022-09-26T18:31:48.358Z,12.16
2022-09-26T18:34:16.829Z,12.16
2022-09-26T18:36:43.697Z,12.10
2022-09-26T18:39:13.298Z,12.10
2022-09-26T18:41:40.219Z,12.12
2022-09-26T18:44:15.114Z,12.12
2022-09-26T18:46:43.331Z,12.12
2022-09-26T18:49:12.196Z,12.12
2022-09-26T18:51:38.848Z,12.09
2022-09-26T18:54:11.713Z,12.11
2022-09-26T18:56:38.474Z,12.06
2022-09-26T18:59:07.669Z,12.07
2022-09-26T19:01:36.374Z,12.01
2022-09-26T19:04:07.372Z,11.99
2022-09-26T19:06:36.461Z,11.98
2022-09-26T19:09:05.459Z,11.92
2022-09-26T19:11:32.438Z,11.97
2022-09-26T19:14:09.205Z,11.94
2022-09-26T19:16:37.230Z,11.85
2022-09-26T19:19:04.072Z,11.88
2022-09-26T19:21:34.989Z,11.91
2022-09-26T19:24:06.724Z,11.89
2022-09-26T19:26:37.663Z,11.85
2022-09-26T19:29:11.313Z,11.85
2022-09-26T19:31:43.789Z,11.89
2022-09-26T19:34:14.571Z,11.92
2022-09-26T19:36:41.524Z,11.99
2022-09-26T19:39:12.010Z,11.91
2022-09-26T19:41:38.920Z,11.96
2022-09-26T19:44:06.111Z,11.97
2022-09-26T19:46:34.925Z,11.97
2022-09-26T19:49:03.169Z,11.92
2022-09-26T19:51:31.553Z,11.93
2022-09-26T19:53:59.736Z,11.98
2022-09-26T19:56:29.513Z,11.98
2022-09-26T19:58:56.974Z,11.97
2022-09-26T20:01:23.686Z,11.99
2022-09-26T20:03:50.934Z,11.99
2022-09-26T20:06:21.095Z,12.03
2022-09-26T20:08:48.129Z,12.02
2022-09-26T20:11:15.100Z,12.03
2022-09-26T20:13:42.227Z,11.99
2022-09-26T20:16:11.521Z,12.01
2022-09-26T20:18:38.183Z,12.00
2022-09-26T20:21:05.175Z,11.96
2022-09-26T20:23:33.140Z,11.96
2022-09-26T20:25:59.984Z,11.98
2022-09-26T20:28:26.828Z,11.99
2022-09-26T20:30:53.487Z,11.96
2022-09-26T20:33:21.792Z,11.94
2022-09-26T20:35:50.888Z,11.95
2022-09-26T20:38:26.445Z,11.93
2022-09-26T20:41:00.517Z,11.90
2022-09-26T20:43:31.625Z,11.92
2022-09-26T20:45:58.382Z,11.91
2022-09-26T20:48:27.492Z,11.86
2022-09-26T20:50:55.558Z,11.90
2022-09-26T20:53:25.593Z,11.92
2022-09-26T20:55:54.820Z,11.94
2022-09-26T20:58:23.091Z,11.95
2022-09-26T21:00:51.518Z,11.91
2022-09-26T21:03:19.305Z,11.90
2022-09-26T21:05:46.420Z,11.88
2022-09-26T21:08:19.868Z,11.84
2022-09-26T21:10:46.595Z,11.85
2022-09-26T21:13:14.554Z,11.82
2022-09-26T21:15:42.361Z,11.82
2022-09-26T21:18:22.057Z,11.78
2022-09-26T21:20:48.877Z,11.80
2022-09-26T21:23:40.249Z,11.79
2022-09-26T21:26:06.885Z,11.77
2022-09-26T21:28:34.914Z,11.76
2022-09-26T21:31:04.777Z,11.76
2022-09-26T21:33:31.776Z,11.74
2022-09-26T21:35:58.463Z,11.68
2022-09-26T21:38:25.815Z,11.69
2022-09-26T21:40:55.962Z,11.69
2022-09-26T21:43:26.961Z,11.65
2022-09-26T21:45:58.936Z,11.65
2022-09-26T21:48:25.537Z,11.62
2022-09-26T21:50:58.069Z,11.62
2022-09-26T21:53:29.615Z,11.61
2022-09-26T21:56:07.285Z,11.62
2022-09-26T21:58:37.247Z,11.62
2022-09-26T22:01:05.495Z,11.61
2022-09-26T22:03:32.902Z,11.60
2022-09-26T22:06:02.509Z,11.57
2022-09-26T22:08:33.273Z,11.57
2022-09-26T22:10:59.997Z,11.52
2022-09-26T22:13:26.681Z,11.54
2022-09-26T22:15:53.308Z,11.54
2022-09-26T22:18:21.402Z,11.52
2022-09-26T22:20:54.802Z,11.53
2022-09-26T22:23:21.541Z,11.54
2022-09-26T22:25:48.939Z,11.54
2022-09-26T22:28:15.759Z,11.48
2022-09-26T22:30:42.390Z,11.48
2022-09-26T22:33:09.227Z,11.47
2022-09-26T22:35:37.269Z,11.45
2022-09-26T22:38:03.933Z,11.40
2022-09-26T22:40:30.568Z,11.43
2022-09-26T22:42:57.772Z,11.42
2022-09-26T22:45:24.461Z,11.37
2022-09-26T22:47:51.043Z,11.39
2022-09-26T22:50:17.735Z,11.43
2022-09-26T22:52:45.779Z,11.42
2022-09-26T22:55:12.378Z,11.37
2022-09-26T22:57:39.090Z,11.39
2022-09-26T23:00:07.136Z,11.40
2022-09-26T23:02:33.947Z,11.37
2022-09-26T23:05:00.697Z,11.34
2022-09-26T23:07:27.356Z,11.30
2022-09-26T23:09:55.416Z,11.27
2022-09-26T23:12:22.323Z,11.27
2022-09-26T23:14:48.953Z,11.28
2022-09-26T23:17:16.685Z,11.28
2022-09-26T23:19:43.378Z,11.24
2022-09-26T23:22:10.043Z,11.22
2022-09-26T23:24:36.804Z,11.22
2022-09-26T23:27:05.024Z,11.16
2022-09-26T23:29:31.624Z,11.16
2022-09-26T23:31:58.246Z,11.14
2022-09-26T23:34:25.187Z,11.12
2022-09-26T23:36:51.784Z,11.09
2022-09-26T23:39:18.433Z,11.10
2022-09-26T23:41:45.141Z,10.98
2022-09-26T23:44:13.078Z,11.06
2022-09-26T23:46:39.802Z,11.05
2022-09-26T23:49:06.591Z,11.04
2022-09-26T23:51:33.270Z,11.04
2022-09-26T23:53:59.870Z,11.07
2022-09-26T23:56:26.511Z,11.04
2022-09-26T23:58:55.607Z,11.05
